createdAt,value
2022-09-26T00:00:42.351Z,16.30
2022-09-26T00:03:25.777Z,14.30
2022-09-26T00:05:54.128Z,14.40
2022-09-26T00:08:25.082Z,12.00
2022-09-26T00:11:01.851Z,13.20
2022-09-26T00:13:31.877Z,12.30
2022-09-26T00:16:04.184Z,15.10
2022-09-26T00:18:34.948Z,14.20
2022-09-26T00:21:10.944Z,14.80
2022-09-26T00:23:44.779Z,15.80
2022-09-26T00:26:14.882Z,16.10
2022-09-26T00:28:44.309Z,14.20
2022-09-26T00:31:22.326Z,16.30
2022-09-26T00:33:53.133Z,14.80
2022-09-26T00:36:29.785Z,18.80
2022-09-26T00:39:06.581Z,18.80
2022-09-26T00:41:36.091Z,19.20
2022-09-26T00:44:35.301Z,17.40
2022-09-26T00:47:06.466Z,19.10
2022-09-26T00:49:42.260Z,18.60
2022-09-26T00:52:17.002Z,18.80
2022-09-26T00:54:48.482Z,18.70
2022-09-26T00:57:22.196Z,15.50
2022-09-26T00:59:57.744Z,14.90
2022-09-26T01:02:29.586Z,13.30
2022-09-26T01:04:59.479Z,15.30
2022-09-26T01:07:30.147Z,14.60
2022-09-26T01:09:59.216Z,12.50
2022-09-26T01:12:27.329Z,13.30
2022-09-26T01:14:57.153Z,13.40
2022-09-26T01:17:26.661Z,14.60
2022-09-26T01:20:19.917Z,13.30
2022-09-26T01:23:12.580Z,14.20
2022-09-26T01:26:15.982Z,14.80
2022-09-26T01:29:17.947Z,11.20
2022-09-26T01:32:32.411Z,12.10
2022-09-26T01:35:14.617Z,10.80
2022-09-26T01:38:11.646Z,9.60
2022-09-26T01:40:58.311Z,13.40
2022-09-26T01:43:50.532Z,14.90
2022-09-26T01:46:41.535Z,10.00
2022-09-26T01:49:18.112Z,11.60
2022-09-26T01:51:57.145Z,7.90
2022-09-26T01:54:31.855Z,9.20
2022-09-26T01:57:04.851Z,10.00
2022-09-26T01:59:40.941Z,12.80
2022-09-26T02:02:27.440Z,12.20
2022-09-26T02:05:06.252Z,10.60
2022-09-26T02:07:41.452Z,10.40
2022-09-26T02:10:23.236Z,13.00
2022-09-26T02:12:57.924Z,12.30
2022-09-26T02:15:27.669Z,12.30
2022-09-26T02:18:03.497Z,10.70
2022-09-26T02:20:35.237Z,11.40
2022-09-26T02:23:05.151Z,13.00
2022-09-26T02:25:33.554Z,11.30
2022-09-26T02:28:01.930Z,12.60
2022-09-26T02:30:30.729Z,14.40
2022-09-26T02:33:00.010Z,16.90
2022-09-26T02:35:46.743Z,12.90
2022-09-26T02:38:15.023Z,12.70
2022-09-26T02:41:13.335Z,11.60
2022-09-26T02:44:29.743Z,11.90
2022-09-26T02:47:19.703Z,11.20
2022-09-26T02:49:59.964Z,11.30
2022-09-26T02:52:56.096Z,11.40
2022-09-26T02:55:34.972Z,10.90
2022-09-26T02:58:36.284Z,11.30
2022-09-26T03:01:27.697Z,11.20
2022-09-26T03:04:05.201Z,11.90
2022-09-26T03:06:49.182Z,11.80
2022-09-26T03:09:18.649Z,12.90
2022-09-26T03:11:48.466Z,12.20
2022-09-26T03:14:21.287Z,10.70
2022-09-26T03:16:51.774Z,11.40
2022-09-26T03:19:39.625Z,10.60
2022-09-26T03:22:09.645Z,11.10
2022-09-26T03:24:38.025Z,10.60
2022-09-26T03:27:06.352Z,10.00
2022-09-26T03:29:36.215Z,9.20
2022-09-26T03:32:06.028Z,9.60
2022-09-26T03:34:34.616Z,9.90
2022-09-26T03:37:02.796Z,11.60
2022-09-26T03:39:30.980Z,12.40
2022-09-26T03:42:06.355Z,12.70
2022-09-26T03:44:35.223Z,13.90
2022-09-26T03:47:18.247Z,11.40
2022-09-26T03:49:49.679Z,11.10
2022-09-26T03:52:18.003Z,10.70
2022-09-26T03:54:48.947Z,11.60
2022-09-26T03:57:20.474Z,12.10
2022-09-26T03:59:52.793Z,12.30
2022-09-26T04:02:21.320Z,12.10
2022-09-26T04:04:52.286Z,10.60
2022-09-26T04:07:20.550Z,11.40
2022-09-26T04:09:48.939Z,11.60
2022-09-26T04:12:18.039Z,13.40
2022-09-26T04:14:46.928Z,11.50
2022-09-26T04:17:14.994Z,11.90
2022-09-26T04:19:45.218Z,11.10
2022-09-26T04:22:13.810Z,11.40
2022-09-26T04:24:44.445Z,12.30
2022-09-26T04:27:15.557Z,13.70
2022-09-26T04:29:46.001Z,12.00
2022-09-26T04:32:34.777Z,11.00
2022-09-26T04:35:35.313Z,10.80
2022-09-26T04:38:04.934Z,10.30
2022-09-26T04:40:34.108Z,11.60
2022-09-26T04:43:06.879Z,11.20
2022-09-26T04:45:35.153Z,12.60
2022-09-26T04:48:03.847Z,10.70
2022-09-26T04:51:11.918Z,11.50
2022-09-26T04:53:44.175Z,11.90
2022-09-26T04:56:26.684Z,11.70
2022-09-26T04:58:56.665Z,12.00
2022-09-26T05:01:27.538Z,13.00
2022-09-26T05:04:04.200Z,13.70
2022-09-26T05:06:34.533Z,14.40
2022-09-26T05:09:06.264Z,15.00
2022-09-26T05:11:44.820Z,14.70
2022-09-26T05:14:13.730Z,13.70
2022-09-26T05:16:42.476Z,13.60
2022-09-26T05:19:13.914Z,12.70
2022-09-26T05:21:52.068Z,15.70
2022-09-26T05:24:39.403Z,13.50
2022-09-26T05:27:08.185Z,11.60
2022-09-26T05:29:36.371Z,14.80
2022-09-26T05:32:07.327Z,15.10
2022-09-26T05:34:41.427Z,14.00
2022-09-26T05:37:12.875Z,13.50
2022-09-26T05:39:59.697Z,13.90
2022-09-26T05:42:28.344Z,13.40
2022-09-26T05:44:56.560Z,13.40
2022-09-26T05:47:26.509Z,13.40
2022-09-26T05:49:54.866Z,13.80
2022-09-26T05:52:23.807Z,13.60
2022-09-26T05:54:52.452Z,13.80
2022-09-26T05:58:01.183Z,14.20
2022-09-26T06:00:52.016Z,15.00
2022-09-26T06:03:20.662Z,13.80
2022-09-26T06:06:11.200Z,14.80
2022-09-26T06:08:41.720Z,15.50
2022-09-26T06:11:35.031Z,12.70
2022-09-26T06:14:05.417Z,15.40
2022-09-26T06:16:34.609Z,15.70
2022-09-26T06:19:06.232Z,16.70
2022-09-26T06:21:40.086Z,14.70
2022-09-26T06:24:15.003Z,14.50
2022-09-26T06:26:45.018Z,14.40
2022-09-26T06:29:19.561Z,15.60
2022-09-26T06:31:54.728Z,13.00
2022-09-26T06:34:52.984Z,10.70
2022-09-26T06:37:41.843Z,15.80
2022-09-26T06:40:11.959Z,16.80
2022-09-26T06:42:41.165Z,14.60
2022-09-26T06:45:27.739Z,17.10
2022-09-26T06:48:12.131Z,17.30
2022-09-26T06:51:00.793Z,13.20
2022-09-26T06:53:32.849Z,11.40
2022-09-26T06:56:03.843Z,13.40
2022-09-26T06:58:35.479Z,13.90
2022-09-26T07:01:07.851Z,13.30
2022-09-26T07:04:04.960Z,13.70
2022-09-26T07:06:38.809Z,14.70
2022-09-26T07:09:12.178Z,14.90
2022-09-26T07:12:15.772Z,11.20
2022-09-26T07:14:50.075Z,10.30
2022-09-26T07:17:30.086Z,11.40
2022-09-26T07:20:16.305Z,13.20
2022-09-26T07:23:06.706Z,13.50
2022-09-26T07:25:39.493Z,12.60
2022-09-26T07:28:10.104Z,11.90
2022-09-26T07:30:47.801Z,15.80
2022-09-26T07:33:24.888Z,15.70
2022-09-26T07:35:55.794Z,13.00
2022-09-26T07:38:26.065Z,15.10
2022-09-26T07:41:01.129Z,15.90
2022-09-26T07:44:21.734Z,12.80
2022-09-26T07:46:42.016Z,16.70
2022-09-26T07:49:30.126Z,14.30
2022-09-26T07:52:02.206Z,13.10
2022-09-26T07:54:43.747Z,14.40
2022-09-26T07:57:17.468Z,13.30
2022-09-26T08:00:13.444Z,15.10
2022-09-26T08:03:09.890Z,15.30
2022-09-26T08:05:40.910Z,14.00
2022-09-26T08:08:11.363Z,12.30
2022-09-26T08:11:03.932Z,13.90
2022-09-26T08:13:47.107Z,13.10
2022-09-26T08:16:24.898Z,14.60
2022-09-26T08:19:06.231Z,11.70
2022-09-26T08:21:36.863Z,16.00
2022-09-26T08:24:07.164Z,12.30
2022-09-26T08:26:56.793Z,14.50
2022-09-26T08:29:37.342Z,15.30
2022-09-26T08:32:09.616Z,13.70
2022-09-26T08:34:41.711Z,16.30
2022-09-26T08:37:35.210Z,15.80
2022-09-26T08:40:34.681Z,14.10
2022-09-26T08:43:31.486Z,18.10
2022-09-26T08:46:33.190Z,10.60
2022-09-26T08:49:30.551Z,12.50
2022-09-26T08:52:23.774Z,12.80
2022-09-26T08:54:58.290Z,9.80
2022-09-26T08:57:37.372Z,14.40
2022-09-26T09:00:19.683Z,12.30
2022-09-26T09:03:11.182Z,13.70
2022-09-26T09:05:51.869Z,16.50
2022-09-26T09:08:31.285Z,12.00
2022-09-26T09:11:39.406Z,11.40
2022-09-26T09:14:35.482Z,17.40
2022-09-26T09:17:31.065Z,14.00
2022-09-26T09:20:52.738Z,14.70
2022-09-26T09:24:17.822Z,16.40
2022-09-26T09:30:24.898Z,15.60
2022-09-26T09:32:59.122Z,14.50
2022-09-26T09:35:48.817Z,15.90
2022-09-26T09:38:44.449Z,15.90
2022-09-26T09:41:38.943Z,17.40
2022-09-26T09:44:46.983Z,13.60
2022-09-26T09:47:21.155Z,20.30
2022-09-26T09:49:50.665Z,15.70
2022-09-26T09:52:47.837Z,14.70
2022-09-26T09:55:33.930Z,16.30
2022-09-26T09:58:03.177Z,10.20
2022-09-26T10:00:41.829Z,13.70
2022-09-26T10:03:33.529Z,10.10
2022-09-26T10:06:08.576Z,13.90
2022-09-26T10:08:55.049Z,13.80
2022-09-26T10:12:05.017Z,15.00
2022-09-26T10:15:02.912Z,10.40
2022-09-26T10:18:23.949Z,17.10
2022-09-26T10:21:19.792Z,11.90
2022-09-26T10:23:51.149Z,11.10
2022-09-26T10:26:37.379Z,8.70
2022-09-26T10:29:39.914Z,6.40
2022-09-26T10:32:14.478Z,11.40
2022-09-26T10:35:05.667Z,7.60
2022-09-26T10:37:39.370Z,7.20
2022-09-26T10:40:48.746Z,9.20
2022-09-26T10:43:26.445Z,5.40
2022-09-26T10:46:13.426Z,5.40
2022-09-26T10:49:04.666Z,2.20
2022-09-26T10:52:22.205Z,3.60
2022-09-26T10:55:35.129Z,3.40
2022-09-26T10:58:15.353Z,3.80
2022-09-26T11:00:49.848Z,5.30
2022-09-26T11:03:32.938Z,5.40
2022-09-26T11:06:34.333Z,6.00
2022-09-26T11:09:23.976Z,2.90
2022-09-26T11:12:29.833Z,4.10
2022-09-26T11:15:09.479Z,3.70
2022-09-26T11:17:49.413Z,3.80
2022-09-26T11:20:55.605Z,4.00
2022-09-26T11:24:03.585Z,3.60
2022-09-26T11:26:49.821Z,3.50
2022-09-26T11:29:19.349Z,3.00
2022-09-26T11:32:07.531Z,5.20
2022-09-26T11:34:36.873Z,3.90
2022-09-26T11:37:27.608Z,2.90
2022-09-26T11:40:14.325Z,3.60
2022-09-26T11:43:09.404Z,4.10
2022-09-26T11:46:15.267Z,3.30
2022-09-26T11:49:27.175Z,4.90
2022-09-26T11:52:44.291Z,3.00
2022-09-26T11:55:25.269Z,4.10
2022-09-26T11:58:25.178Z,3.70
2022-09-26T12:01:02.561Z,4.00
2022-09-26T12:03:39.189Z,4.00
2022-09-26T12:06:22.093Z,3.70
2022-09-26T12:09:13.623Z,3.80
2022-09-26T12:12:08.446Z,2.80
2022-09-26T12:15:20.040Z,2.40
2022-09-26T12:18:32.756Z,3.60
2022-09-26T12:21:27.268Z,4.50
2022-09-26T12:24:08.841Z,3.80
2022-09-26T12:26:52.172Z,2.60
2022-09-26T12:29:30.361Z,3.40
2022-09-26T12:32:24.380Z,4.40
2022-09-26T12:35:05.458Z,4.30
2022-09-26T12:37:59.093Z,3.20
2022-09-26T12:40:57.988Z,3.50
2022-09-26T12:43:50.243Z,4.00
2022-09-26T12:46:33.905Z,3.30
2022-09-26T12:49:29.902Z,4.90
2022-09-26T12:52:26.577Z,5.20
2022-09-26T12:55:44.583Z,4.90
2022-09-26T12:58:50.184Z,4.50
2022-09-26T13:01:28.630Z,5.00
2022-09-26T13:04:17.679Z,5.40
2022-09-26T13:07:24.306Z,5.20
2022-09-26T13:10:08.250Z,7.30
2022-09-26T13:13:11.643Z,4.40
2022-09-26T13:16:22.234Z,5.70
2022-09-26T13:19:03.614Z,5.30
2022-09-26T13:21:41.768Z,5.20
2022-09-26T13:24:23.281Z,6.40
2022-09-26T13:27:19.456Z,4.30
2022-09-26T13:30:20.306Z,3.90
2022-09-26T13:33:18.690Z,3.60
2022-09-26T13:35:51.689Z,3.40
2022-09-26T13:38:41.830Z,3.40
2022-09-26T13:41:25.614Z,4.30
2022-09-26T13:44:32.213Z,4.50
2022-09-26T13:47:02.049Z,4.40
2022-09-26T13:49:36.441Z,3.60
2022-09-26T14:22:07.053Z,5.20
2022-09-26T14:24:47.052Z,4.20
2022-09-26T14:27:37.353Z,4.00
2022-09-26T14:30:28.777Z,4.50
2022-09-26T14:33:11.406Z,3.60
2022-09-26T14:35:40.910Z,4.70
2022-09-26T14:38:16.349Z,2.60
2022-09-26T14:40:59.244Z,3.90
2022-09-26T14:43:32.293Z,2.70
2022-09-26T14:46:06.981Z,4.30
2022-09-26T14:48:44.093Z,4.70
2022-09-26T14:51:17.753Z,4.20
2022-09-26T14:53:50.394Z,4.40
2022-09-26T14:56:35.651Z,3.70
2022-09-26T14:59:17.023Z,5.20
2022-09-26T15:01:48.966Z,5.70
2022-09-26T15:04:28.280Z,5.50
2022-09-26T15:07:06.763Z,6.90
2022-09-26T15:09:55.433Z,6.70
2022-09-26T15:12:44.841Z,5.30
2022-09-26T15:15:17.702Z,4.60
2022-09-26T15:17:54.579Z,6.00
2022-09-26T15:20:46.031Z,4.70
2022-09-26T15:23:31.689Z,4.90
2022-09-26T15:26:06.486Z,4.30
2022-09-26T15:28:38.797Z,5.00
2022-09-26T15:31:25.039Z,4.70
2022-09-26T15:34:05.790Z,5.50
2022-09-26T15:36:40.175Z,4.90
2022-09-26T15:39:32.564Z,5.50
2022-09-26T15:42:28.777Z,4.90
2022-09-26T15:45:01.275Z,4.60
2022-09-26T15:47:30.525Z,6.20
2022-09-26T15:50:22.841Z,5.70
2022-09-26T15:53:07.784Z,5.30
2022-09-26T15:56:09.957Z,6.30
2022-09-26T15:59:14.750Z,6.00
2022-09-26T16:01:49.442Z,6.00
2022-09-26T16:04:29.756Z,5.00
2022-09-26T16:06:59.185Z,5.10
2022-09-26T16:09:46.427Z,5.50
2022-09-26T16:12:16.755Z,4.20
2022-09-26T16:15:03.596Z,4.30
2022-09-26T16:17:48.721Z,5.50
2022-09-26T16:20:25.802Z,5.00
2022-09-26T16:23:05.152Z,6.20
2022-09-26T16:25:59.167Z,4.50
2022-09-26T16:28:44.080Z,4.90
2022-09-26T16:31:27.549Z,5.10
2022-09-26T16:34:02.868Z,4.50
2022-09-26T16:36:46.994Z,4.80
2022-09-26T16:39:30.557Z,5.30
2022-09-26T16:42:14.431Z,5.50
2022-09-26T16:45:15.108Z,4.90
2022-09-26T16:47:51.038Z,5.20
2022-09-26T16:50:34.318Z,4.50
2022-09-26T16:53:09.768Z,5.80
2022-09-26T16:55:40.424Z,4.10
2022-09-26T16:58:15.436Z,4.60
2022-09-26T17:01:04.418Z,4.90
2022-09-26T17:03:42.618Z,7.20
2022-09-26T17:06:17.101Z,6.40
2022-09-26T17:08:50.221Z,6.70
2022-09-26T17:11:20.062Z,7.00
2022-09-26T17:13:51.354Z,6.70
2022-09-26T17:16:23.253Z,7.10
2022-09-26T17:18:55.626Z,9.80
2022-09-26T17:21:41.792Z,11.60
2022-09-26T17:24:16.911Z,11.80
2022-09-26T17:26:59.657Z,9.30
2022-09-26T17:29:43.200Z,9.70
2022-09-26T17:32:45.524Z,10.20
2022-09-26T17:35:30.482Z,9.30
2022-09-26T17:38:10.043Z,8.40
2022-09-26T17:40:47.724Z,9.50
2022-09-26T17:43:28.039Z,8.40
2022-09-26T17:46:03.567Z,7.70
2022-09-26T17:48:43.115Z,10.50
2022-09-26T17:51:26.410Z,9.40
2022-09-26T17:54:12.758Z,8.80
2022-09-26T17:56:50.905Z,9.20
2022-09-26T17:59:29.968Z,9.60
2022-09-26T18:02:33.705Z,10.80
2022-09-26T18:05:16.127Z,11.00
2022-09-26T18:07:55.668Z,11.80
2022-09-26T18:10:35.571Z,15.60
2022-09-26T18:13:18.129Z,19.20
2022-09-26T18:16:04.447Z,16.10
2022-09-26T18:18:40.447Z,18.20
2022-09-26T18:21:19.715Z,14.40
2022-09-26T18:24:07.225Z,15.30
2022-09-26T18:26:52.481Z,15.80
2022-09-26T18:29:39.618Z,12.80
2022-09-26T18:32:31.514Z,16.90
2022-09-26T18:35:15.206Z,12.30
2022-09-26T18:37:51.543Z,13.20
2022-09-26T18:40:30.887Z,13.70
2022-09-26T18:43:13.601Z,12.80
2022-09-26T18:45:56.028Z,14.80
2022-09-26T18:48:39.589Z,14.90
2022-09-26T18:51:14.637Z,13.30
2022-09-26T18:53:50.541Z,12.10
2022-09-26T18:56:48.793Z,14.00
2022-09-26T18:59:26.752Z,12.50
2022-09-26T19:02:05.705Z,12.90
2022-09-26T19:04:43.067Z,13.00
2022-09-26T19:07:21.465Z,12.00
2022-09-26T19:09:58.585Z,12.90
2022-09-26T19:12:32.745Z,13.30
2022-09-26T19:15:18.981Z,14.10
2022-09-26T19:17:54.300Z,14.40
2022-09-26T19:20:32.560Z,14.00
2022-09-26T19:23:09.031Z,12.20
2022-09-26T19:25:47.858Z,13.40
2022-09-26T19:28:29.795Z,14.70
2022-09-26T19:31:07.746Z,13.20
2022-09-26T19:33:48.174Z,13.90
2022-09-26T19:36:23.766Z,14.60
2022-09-26T19:38:59.466Z,13.70
2022-09-26T19:41:33.850Z,13.00
2022-09-26T19:44:16.765Z,13.10
2022-09-26T19:46:50.357Z,12.80
2022-09-26T19:49:27.948Z,14.20
2022-09-26T19:52:08.287Z,14.00
2022-09-26T19:54:41.175Z,15.70
2022-09-26T19:57:25.058Z,16.30
2022-09-26T20:00:00.558Z,17.00
2022-09-26T20:02:33.191Z,15.70
2022-09-26T20:05:21.062Z,16.70
2022-09-26T20:07:54.844Z,17.90
2022-09-26T20:10:25.603Z,15.30
2022-09-26T20:12:54.782Z,14.30
2022-09-26T20:15:24.425Z,16.00
2022-09-26T20:17:55.520Z,28.80
2022-09-26T20:20:26.569Z,20.20
2022-09-26T20:22:56.970Z,26.20
2022-09-26T20:25:29.198Z,72.50
2022-09-26T20:28:02.582Z,48.60
2022-09-26T20:30:50.793Z,35.30
2022-09-26T20:33:24.508Z,27.30
2022-09-26T20:36:02.875Z,16.20
2022-09-26T20:38:42.097Z,18.30
2022-09-26T20:41:26.931Z,18.10
2022-09-26T20:44:02.787Z,17.90
2022-09-26T20:46:37.567Z,16.50
2022-09-26T20:49:15.276Z,21.90
2022-09-26T20:51:46.386Z,21.50
2022-09-26T20:54:26.082Z,21.60
2022-09-26T20:56:57.127Z,20.80
2022-09-26T20:59:27.459Z,20.00
2022-09-26T21:01:58.591Z,19.80
2022-09-26T21:04:32.460Z,17.10
2022-09-26T21:07:01.074Z,19.60
2022-09-26T21:09:30.056Z,17.20
2022-09-26T21:11:58.384Z,17.10
2022-09-26T21:14:26.724Z,18.30
2022-09-26T21:16:55.239Z,17.80
2022-09-26T21:19:25.129Z,17.00
2022-09-26T21:22:04.150Z,22.60
2022-09-26T21:24:45.959Z,16.80
2022-09-26T21:27:14.374Z,16.80
2022-09-26T21:29:46.610Z,16.40
2022-09-26T21:32:18.932Z,16.00
2022-09-26T21:34:57.731Z,17.40
2022-09-26T21:37:30.222Z,17.40
2022-09-26T21:39:58.954Z,16.80
2022-09-26T21:42:27.544Z,18.50
2022-09-26T21:45:03.360Z,15.50
2022-09-26T21:47:32.349Z,20.50
2022-09-26T21:50:00.757Z,16.90
2022-09-26T21:52:37.318Z,18.20
2022-09-26T21:55:07.182Z,19.20
2022-09-26T21:57:41.499Z,18.60
2022-09-26T22:00:15.299Z,22.80
2022-09-26T22:02:44.355Z,30.20
2022-09-26T22:05:13.367Z,22.70
2022-09-26T22:07:41.631Z,21.60
2022-09-26T22:10:12.775Z,23.50
2022-09-26T22:12:41.453Z,17.20
2022-09-26T22:15:10.611Z,19.50
2022-09-26T22:17:38.956Z,25.30
2022-09-26T22:20:08.244Z,21.40
2022-09-26T22:22:36.932Z,22.00
2022-09-26T22:25:10.468Z,23.10
2022-09-26T22:27:42.126Z,19.20
2022-09-26T22:30:10.978Z,18.70
2022-09-26T22:32:40.199Z,22.40
2022-09-26T22:35:11.425Z,16.10
2022-09-26T22:37:40.003Z,20.50
2022-09-26T22:40:09.292Z,28.90
2022-09-26T22:42:37.574Z,17.50
2022-09-26T22:45:09.740Z,21.80
2022-09-26T22:47:41.789Z,15.70
2022-09-26T22:50:10.795Z,14.50
2022-09-26T22:52:39.014Z,18.00
2022-09-26T22:55:08.442Z,20.70
2022-09-26T22:57:36.659Z,19.00
2022-09-26T23:00:06.266Z,17.70
2022-09-26T23:02:34.991Z,20.60
2022-09-26T23:05:04.053Z,21.90
2022-09-26T23:07:32.299Z,28.90
2022-09-26T23:10:00.802Z,58.80
2022-09-26T23:12:30.620Z,27.80
2022-09-26T23:14:58.949Z,19.80
2022-09-26T23:17:27.165Z,38.50
2022-09-26T23:19:55.465Z,25.30
2022-09-26T23:22:23.825Z,16.60
2022-09-26T23:24:51.995Z,37.60
2022-09-26T23:27:20.097Z,16.60
2022-09-26T23:35:58.396Z,15.00
2022-09-26T23:41:53.794Z,17.10
2022-09-26T23:47:37.487Z,12.60
2022-09-26T23:53:52.818Z,13.60
